Time;durP1;ratioP1;P1;durP2;ratioP2;P2;SDS_P1;SDS_P2;PMS_P1;PMS_P2;Temp;Humidity;BMP_temperature;BMP_pressure;BME280_temperature;BME280_humidity;BME280_pressure;Samples;Min_cycle;Max_cycle;Signal;HPM_P1;HPM_P2
2022/07/02 00:01:37;;;;;;;4.57;2.80;;;14.70;99.90;;;;;;4956666;29;20075;-93
2022/07/02 00:04:04;;;;;;;6.95;2.88;;;14.70;99.90;;;;;;4956637;28;20082;-93
2022/07/02 00:06:31;;;;;;;5.57;2.67;;;14.70;99.90;;;;;;4956153;28;20027;-83
2022/07/02 00:08:59;;;;;;;5.10;2.70;;;14.70;99.90;;;;;;4955707;28;20031;-94
2022/07/02 00:11:26;;;;;;;7.63;2.90;;;14.70;99.90;;;;;;4956036;28;20027;-90
2022/07/02 00:13:53;;;;;;;4.22;2.97;;;14.70;99.90;;;;;;4956480;28;20035;-93
2022/07/02 00:16:19;;;;;;;6.63;3.08;;;14.60;99.90;;;;;;4958343;28;20034;-88
2022/07/02 00:18:44;;;;;;;3.78;3.00;;;14.50;99.90;;;;;;4963653;28;20046;-83
2022/07/02 00:21:10;;;;;;;5.82;3.30;;;14.50;99.90;;;;;;4963709;28;20103;-93
2022/07/02 00:23:36;;;;;;;5.80;3.58;;;14.50;99.90;;;;;;4963737;29;20034;-93
2022/07/02 00:26:07;;;;;;;5.68;3.40;;;14.40;99.90;;;;;;4961633;29;20078;-92
2022/07/02 00:28:37;;;;;;;8.65;3.60;;;14.40;99.90;;;;;;4961766;28;20055;-92
2022/07/02 00:31:03;;;;;;;6.70;3.70;;;14.30;99.90;;;;;;4963312;28;20027;-93
2022/07/02 00:33:33;;;;;;;6.57;3.58;;;14.20;99.90;;;;;;4961158;29;20031;-93
2022/07/02 00:35:59;;;;;;;6.70;3.40;;;14.20;99.90;;;;;;4957190;28;20042;-94
2022/07/02 00:38:25;;;;;;;6.63;3.47;;;14.50;99.90;;;;;;4955769;28;20055;-83
2022/07/02 00:40:52;;;;;;;6.88;3.40;;;14.10;99.90;;;;;;4955505;29;20019;-83
2022/07/02 00:43:20;;;;;;;5.32;3.20;;;14.00;99.90;;;;;;4955515;28;20031;-91
2022/07/02 00:45:46;;;;;;;7.80;3.42;;;14.00;99.90;;;;;;4956343;28;20035;-83
2022/07/02 00:48:15;;;;;;;4.82;2.78;;;13.90;99.90;;;;;;4956614;28;20045;-90
2022/07/02 00:50:41;;;;;;;8.48;3.10;;;13.90;99.90;;;;;;4970761;28;20100;-92
2022/07/02 00:53:06;;;;;;;5.18;2.80;;;13.80;99.90;;;;;;4956740;29;20063;-94
2022/07/02 00:55:32;;;;;;;7.85;2.70;;;13.80;99.90;;;;;;4970618;28;20540;-93
2022/07/02 00:57:58;;;;;;;5.25;2.80;;;13.80;99.90;;;;;;4958055;29;20035;-86
2022/07/02 01:00:25;;;;;;;4.80;3.10;;;13.80;99.90;;;;;;4957759;28;20026;-94
2022/07/02 01:02:52;;;;;;;7.95;2.90;;;13.80;99.90;;;;;;4957230;28;20034;-90
2022/07/02 01:05:21;;;;;;;4.10;2.40;;;13.70;99.90;;;;;;4973734;28;20488;-92
2022/07/02 01:10:44;;;;;;;4.03;2.30;;;13.60;99.90;;;;;;4957312;29;20042;-92
2022/07/02 01:13:11;;;;;;;3.38;2.00;;;13.60;99.90;;;;;;4957413;28;20066;-92
2022/07/02 01:15:38;;;;;;;4.93;2.30;;;13.50;99.90;;;;;;4956711;28;20243;-93
2022/07/02 01:18:04;;;;;;;3.80;2.10;;;13.50;99.90;;;;;;4957114;28;20162;-94
2022/07/02 01:20:30;;;;;;;2.95;2.10;;;13.50;99.90;;;;;;4959843;28;20038;-90
2022/07/02 01:22:56;;;;;;;5.72;2.47;;;13.40;99.90;;;;;;4970527;28;20031;-83
2022/07/02 01:25:22;;;;;;;2.95;2.25;;;13.40;99.90;;;;;;4968686;28;20031;-93
2022/07/02 01:27:48;;;;;;;6.50;2.28;;;13.40;99.90;;;;;;4958278;29;20047;-83
2022/07/02 01:30:14;;;;;;;3.00;2.10;;;13.40;99.90;;;;;;4958091;29;20039;-94
2022/07/02 01:32:40;;;;;;;2.30;2.00;;;13.50;99.90;;;;;;4970489;28;20495;-84
2022/07/02 01:35:08;;;;;;;7.10;1.90;;;13.50;99.90;;;;;;4955956;29;20487;-95
2022/07/02 01:37:37;;;;;;;4.13;1.90;;;13.50;99.90;;;;;;4956456;28;20034;-93
2022/07/02 01:40:04;;;;;;;3.63;1.80;;;13.50;99.90;;;;;;4956985;28;20031;-94
2022/07/02 01:42:30;;;;;;;6.68;2.00;;;13.40;99.90;;;;;;4956750;29;20035;-92
2022/07/02 01:44:56;;;;;;;2.80;1.77;;;13.30;99.90;;;;;;4955349;29;20087;-94
2022/07/02 01:47:21;;;;;;;1.98;1.70;;;13.30;99.90;;;;;;4954519;28;20073;-83
2022/07/02 01:49:47;;;;;;;2.78;1.80;;;13.30;99.90;;;;;;4958925;29;20488;-92
2022/07/02 01:52:14;;;;;;;4.55;1.88;;;13.00;99.90;;;;;;4960502;29;20024;-93
2022/07/02 01:54:40;;;;;;;5.32;1.67;;;;;;;;;;4958730;28;20085;-85
2022/07/02 01:57:06;;;;;;;3.40;1.83;;;13.10;99.90;;;;;;4954998;29;20499;-91
2022/07/02 01:59:33;;;;;;;1.98;1.60;;;;;;;;;;4967450;28;20031;-92
2022/07/02 02:01:59;;;;;;;3.47;1.80;;;13.20;99.90;;;;;;4953902;29;20080;-91
2022/07/02 02:04:24;;;;;;;2.10;1.58;;;13.20;99.90;;;;;;4953889;29;20037;-94
2022/07/02 02:06:50;;;;;;;1.88;1.45;;;13.10;99.90;;;;;;4953796;28;20415;-83
2022/07/02 02:09:16;;;;;;;3.15;1.70;;;13.00;99.90;;;;;;4954518;29;20027;-93
2022/07/02 02:11:41;;;;;;;2.67;1.65;;;13.00;99.90;;;;;;4966937;28;20034;-83
2022/07/02 02:14:07;;;;;;;1.88;1.63;;;13.00;99.90;;;;;;4967757;28;20066;-92
2022/07/02 02:16:33;;;;;;;2.70;1.60;;;13.00;99.90;;;;;;4953033;29;20019;-92
2022/07/02 02:18:59;;;;;;;1.90;1.75;;;;;;;;;;4954079;29;20075;-94
2022/07/02 02:21:26;;;;;;;2.55;1.65;;;12.80;99.90;;;;;;4970322;28;20051;-93
2022/07/02 02:23:53;;;;;;;3.40;2.03;;;12.70;99.90;;;;;;4953027;28;20365;-83
2022/07/02 02:26:20;;;;;;;3.13;1.90;;;12.70;99.90;;;;;;4953629;28;20078;-84
2022/07/02 02:28:46;;;;;;;2.33;1.52;;;12.70;99.90;;;;;;4968042;28;20023;-83
2022/07/02 02:31:12;;;;;;;3.08;1.80;;;12.70;99.90;;;;;;4952417;28;20515;-83
2022/07/02 02:33:37;;;;;;;2.80;1.90;;;12.70;99.90;;;;;;4951920;29;20027;-94
2022/07/02 02:36:03;;;;;;;1.95;1.60;;;12.70;99.90;;;;;;4952383;29;20034;-83
2022/07/02 02:38:29;;;;;;;3.22;1.58;;;12.70;99.90;;;;;;4952841;29;20035;-84
2022/07/02 02:40:55;;;;;;;4.15;1.75;;;12.70;99.90;;;;;;4952302;28;20079;-83
2022/07/02 02:43:20;;;;;;;2.70;1.75;;;12.80;99.90;;;;;;4953312;29;20407;-84
2022/07/02 02:45:48;;;;;;;4.35;1.80;;;12.80;99.90;;;;;;4967636;28;20030;-93
2022/07/02 02:48:15;;;;;;;2.63;1.60;;;12.80;99.90;;;;;;4952410;29;20499;-83
2022/07/02 02:50:40;;;;;;;1.90;1.50;;;12.80;99.90;;;;;;4953414;28;20035;-84
2022/07/02 02:53:06;;;;;;;4.00;1.95;;;12.90;99.90;;;;;;4953413;29;20390;-93
2022/07/02 02:55:31;;;;;;;5.47;1.70;;;12.90;99.90;;;;;;4951946;29;20169;-92
2022/07/02 02:57:57;;;;;;;2.55;1.70;;;12.90;99.90;;;;;;4952581;29;20023;-84
2022/07/02 03:00:23;;;;;;;3.13;1.85;;;12.90;99.90;;;;;;4953472;29;20102;-83
2022/07/02 03:02:49;;;;;;;2.22;1.63;;;12.90;99.90;;;;;;4955192;29;20043;-79
2022/07/02 03:05:14;;;;;;;3.17;1.63;;;12.80;99.90;;;;;;4953030;29;20132;-82
2022/07/02 03:07:40;;;;;;;2.80;1.80;;;12.80;99.90;;;;;;4966993;28;20391;-83
2022/07/02 03:10:06;;;;;;;3.00;1.70;;;12.70;99.90;;;;;;4952235;29;20451;-83
2022/07/02 03:12:32;;;;;;;2.38;1.73;;;12.70;99.90;;;;;;4951668;28;20023;-83
2022/07/02 03:14:57;;;;;;;7.22;1.90;;;12.70;99.90;;;;;;4951767;29;20027;-82
2022/07/02 03:17:23;;;;;;;2.75;1.63;;;12.70;99.90;;;;;;4954434;28;20023;-82
2022/07/02 03:19:51;;;;;;;2.55;1.90;;;12.70;99.90;;;;;;4955687;29;20034;-92
2022/07/02 03:22:17;;;;;;;3.00;1.90;;;12.60;99.90;;;;;;4955053;28;20078;-82
2022/07/02 03:24:42;;;;;;;4.28;1.90;;;12.60;99.90;;;;;;4954881;28;20480;-82
2022/07/02 03:27:08;;;;;;;3.53;1.92;;;12.50;99.90;;;;;;4954931;29;20024;-91
2022/07/02 03:29:33;;;;;;;2.03;1.83;;;12.40;99.90;;;;;;4955309;29;20082;-92
2022/07/02 03:31:59;;;;;;;4.78;1.90;;;12.40;99.90;;;;;;4955340;29;20518;-82
2022/07/02 03:34:25;;;;;;;2.90;1.70;;;12.30;99.90;;;;;;4955574;29;20458;-82
2022/07/02 03:36:52;;;;;;;4.97;1.80;;;12.20;99.90;;;;;;4971061;28;20035;-90
2022/07/02 03:39:17;;;;;;;2.15;1.58;;;12.20;99.90;;;;;;4955083;29;20090;-90
2022/07/02 03:41:43;;;;;;;2.13;1.70;;;12.20;99.90;;;;;;4954981;29;20443;-91
2022/07/02 03:44:09;;;;;;;3.80;1.70;;;12.20;99.90;;;;;;4954802;28;20126;-92
2022/07/02 03:46:34;;;;;;;1.92;1.60;;;12.20;99.90;;;;;;4955959;29;20471;-83
2022/07/02 03:49:00;;;;;;;3.22;1.90;;;12.10;99.90;;;;;;4955193;29;20031;-90
2022/07/02 03:51:26;;;;;;;2.13;1.50;;;12.10;99.90;;;;;;4955678;29;20070;-83
2022/07/02 03:53:52;;;;;;;1.42;1.30;;;12.00;99.90;;;;;;4955593;29;20032;-92
2022/07/02 03:56:18;;;;;;;4.65;2.13;;;12.10;99.90;;;;;;4954728;29;20027;-91
2022/07/02 03:58:43;;;;;;;3.88;1.80;;;12.00;99.90;;;;;;4955375;28;20098;-82
2022/07/02 04:01:09;;;;;;;1.95;1.60;;;12.10;99.90;;;;;;4954518;29;20527;-82
2022/07/02 04:03:35;;;;;;;2.75;1.83;;;12.10;99.90;;;;;;4954842;29;20046;-94
2022/07/02 04:06:01;;;;;;;1.80;1.70;;;12.10;99.90;;;;;;4956747;28;20098;-84
2022/07/02 04:08:27;;;;;;;1.80;1.70;;;12.20;99.90;;;;;;4957303;28;20031;-82
2022/07/02 04:10:52;;;;;;;3.38;2.00;;;12.10;99.90;;;;;;4956212;29;20031;-82
2022/07/02 04:13:18;;;;;;;4.65;1.85;;;12.10;99.90;;;;;;4954162;29;20035;-82
2022/07/02 04:15:44;;;;;;;2.72;2.10;;;12.00;99.90;;;;;;4953901;29;20027;-82
2022/07/02 04:18:09;;;;;;;4.18;2.40;;;12.10;99.90;;;;;;4954001;29;20050;-91
2022/07/02 04:20:35;;;;;;;3.85;2.20;;;12.10;99.90;;;;;;4954154;29;20047;-91
2022/07/02 04:23:01;;;;;;;5.65;2.33;;;12.10;99.90;;;;;;4954640;29;20483;-91
2022/07/02 04:25:28;;;;;;;3.88;2.53;;;12.10;99.90;;;;;;4954882;29;20434;-83
2022/07/02 04:27:54;;;;;;;4.78;2.30;;;12.10;99.90;;;;;;4954852;29;20030;-83
2022/07/02 04:30:19;;;;;;;7.38;2.75;;;12.10;99.90;;;;;;4968581;28;20023;-83
2022/07/02 04:32:45;;;;;;;2.92;2.50;;;12.00;99.90;;;;;;4954530;29;20031;-89
2022/07/02 04:35:11;;;;;;;3.00;2.30;;;12.00;99.90;;;;;;4954133;29;20077;-84
2022/07/02 04:37:36;;;;;;;5.25;2.50;;;12.10;99.90;;;;;;4954838;29;20102;-83
2022/07/02 04:40:03;;;;;;;6.50;2.60;;;12.00;99.90;;;;;;4956833;29;20480;-83
2022/07/02 04:42:29;;;;;;;2.63;2.22;;;12.10;99.90;;;;;;4956094;28;20026;-81
2022/07/02 04:44:55;;;;;;;4.03;2.28;;;12.10;99.90;;;;;;4955300;29;20484;-81
2022/07/02 04:47:21;;;;;;;2.65;2.10;;;12.20;99.90;;;;;;4954063;28;20031;-83
2022/07/02 04:49:46;;;;;;;2.65;2.25;;;12.10;99.90;;;;;;4968737;28;20035;-92
2022/07/02 04:52:12;;;;;;;3.83;2.55;;;12.10;99.90;;;;;;4953611;29;20024;-81
2022/07/02 04:54:38;;;;;;;3.17;2.40;;;12.00;99.90;;;;;;4953783;29;20475;-90
2022/07/02 04:57:04;;;;;;;5.47;2.40;;;12.00;99.90;;;;;;4968693;28;20484;-90
2022/07/02 04:59:29;;;;;;;4.88;2.50;;;12.00;99.90;;;;;;4953402;28;20561;-84
2022/07/02 05:01:55;;;;;;;4.68;2.35;;;12.10;99.90;;;;;;4969738;28;20090;-90
2022/07/02 05:04:21;;;;;;;2.30;2.10;;;12.10;99.90;;;;;;4953351;29;20031;-84
2022/07/02 05:06:46;;;;;;;3.60;2.30;;;12.10;99.90;;;;;;4953610;29;20043;-91
2022/07/02 05:09:12;;;;;;;7.45;2.58;;;12.10;99.90;;;;;;4953643;29;20031;-92
2022/07/02 05:11:38;;;;;;;7.18;2.30;;;12.10;99.90;;;;;;4953508;29;20031;-82
2022/07/02 05:14:03;;;;;;;5.03;2.25;;;12.10;99.90;;;;;;4953313;29;20483;-88
2022/07/02 05:16:29;;;;;;;4.80;2.08;;;12.10;99.90;;;;;;4954031;28;20046;-91
2022/07/02 05:18:55;;;;;;;4.30;2.60;;;12.20;99.90;;;;;;4954333;29;20419;-92
2022/07/02 05:21:21;;;;;;;2.65;2.05;;;12.10;99.90;;;;;;4953188;29;20050;-83
2022/07/02 05:23:46;;;;;;;3.45;2.15;;;12.20;99.90;;;;;;4953350;29;20550;-92
2022/07/02 05:26:12;;;;;;;6.25;2.65;;;12.20;99.90;;;;;;4953344;29;20015;-91
2022/07/02 05:28:38;;;;;;;4.55;2.65;;;12.30;99.90;;;;;;4953269;29;20078;-87
2022/07/02 05:31:03;;;;;;;6.05;2.90;;;12.30;99.90;;;;;;4953135;29;20377;-82
2022/07/02 05:33:29;;;;;;;3.42;2.50;;;12.40;99.90;;;;;;4954101;29;20031;-92
2022/07/02 05:35:55;;;;;;;5.68;2.53;;;12.50;99.90;;;;;;4952948;29;20578;-89
2022/07/02 05:38:20;;;;;;;7.25;3.20;;;12.60;99.90;;;;;;4953000;28;20284;-83
2022/07/02 05:40:46;;;;;;;9.88;2.90;;;12.60;99.90;;;;;;4953652;28;20055;-93
2022/07/02 05:43:12;;;;;;;6.15;2.63;;;12.70;99.90;;;;;;4956364;29;20098;-82
2022/07/02 05:45:38;;;;;;;12.30;3.22;;;12.80;99.90;;;;;;4953482;29;20106;-82
2022/07/02 05:48:04;;;;;;;6.32;3.40;;;12.80;99.90;;;;;;4951796;29;20027;-87
2022/07/02 05:50:29;;;;;;;7.20;3.28;;;12.90;99.90;;;;;;4951354;28;20027;-86
2022/07/02 05:52:55;;;;;;;6.95;3.22;;;13.00;99.90;;;;;;4951067;28;20023;-83
2022/07/02 05:55:21;;;;;;;6.65;3.50;;;13.00;99.90;;;;;;4951629;29;20027;-89
2022/07/02 05:57:47;;;;;;;5.68;3.38;;;13.10;99.90;;;;;;4952150;28;20062;-86
2022/07/02 06:00:13;;;;;;;5.03;3.05;;;13.20;99.90;;;;;;4951542;28;20118;-80
2022/07/02 06:02:39;;;;;;;5.80;2.90;;;13.20;99.90;;;;;;4950175;29;20019;-79
2022/07/02 06:07:38;;;;;;;7.10;3.20;;;13.30;99.90;;;;;;4951357;29;20078;-81
2022/07/02 06:07:51;;;;;;;4.30;2.92;;;13.30;99.90;;;;;;4951181;29;20042;-89
2022/07/02 06:10:20;;;;;;;8.48;3.50;;;13.50;99.90;;;;;;4951346;28;20030;-81
2022/07/02 06:12:50;;;;;;;6.97;2.92;;;13.40;99.90;;;;;;4952617;29;20039;-93
2022/07/02 06:15:17;;;;;;;10.32;2.80;;;13.50;99.90;;;;;;4952519;28;20063;-89
2022/07/02 06:17:43;;;;;;;5.55;2.63;;;13.60;99.90;;;;;;4951343;28;20034;-91
2022/07/02 06:20:10;;;;;;;8.25;3.08;;;13.60;99.90;;;;;;4951579;28;20046;-92
2022/07/02 06:22:36;;;;;;;6.13;2.60;;;13.70;99.90;;;;;;4951121;28;20435;-84
2022/07/02 06:25:01;;;;;;;4.45;2.70;;;13.80;99.90;;;;;;4952376;29;20031;-91
2022/07/02 06:27:27;;;;;;;3.80;2.35;;;13.90;99.90;;;;;;4951761;28;20027;-92
2022/07/02 06:29:53;;;;;;;5.75;2.78;;;13.90;99.90;;;;;;4951667;28;20024;-90
2022/07/02 06:32:20;;;;;;;4.18;2.50;;;14.00;99.90;;;;;;4951542;28;20522;-85
2022/07/02 06:34:45;;;;;;;5.07;2.60;;;14.10;99.90;;;;;;4951895;29;20075;-91
2022/07/02 06:37:11;;;;;;;8.52;2.35;;;14.20;99.90;;;;;;4947005;28;20035;-86
2022/07/02 06:39:37;;;;;;;5.78;2.40;;;14.30;99.90;;;;;;4954983;29;20164;-82
2022/07/02 06:44:53;;;;;;;6.72;2.10;;;14.40;99.90;;;;;;4957609;28;20035;-87
2022/07/02 06:47:19;;;;;;;5.47;2.50;;;14.50;99.90;;;;;;4960153;28;20038;-85
2022/07/02 06:49:45;;;;;;;5.30;2.55;;;14.60;99.90;;;;;;4948271;28;20081;-84
2022/07/02 06:52:11;;;;;;;3.63;2.45;;;14.70;99.90;;;;;;4947255;28;20113;-90
2022/07/02 06:54:38;;;;;;;6.70;2.25;;;14.80;99.90;;;;;;4950321;28;20091;-86
2022/07/02 06:57:04;;;;;;;7.93;2.50;;;14.90;99.90;;;;;;4965722;28;20042;-82
2022/07/02 06:59:30;;;;;;;4.85;1.80;;;14.80;99.90;;;;;;4965929;28;20035;-90
2022/07/02 07:01:56;;;;;;;5.68;2.40;;;14.90;99.90;;;;;;4950692;28;20102;-91
2022/07/02 07:04:22;;;;;;;5.07;2.00;;;14.90;99.90;;;;;;4950565;28;20031;-86
2022/07/02 07:09:19;;;;;;;8.43;1.83;;;15.10;99.90;;;;;;4951535;28;20148;-93
2022/07/02 07:11:46;;;;;;;5.60;1.88;;;15.20;99.90;;;;;;4950579;28;20484;-83
2022/07/02 07:14:11;;;;;;;4.78;2.20;;;15.30;99.90;;;;;;4950616;28;20024;-84
2022/07/02 07:16:37;;;;;;;5.63;1.83;;;15.40;99.90;;;;;;4950420;29;20035;-92
2022/07/02 07:19:06;;;;;;;5.30;1.90;;;15.40;99.90;;;;;;4951497;28;20040;-83
2022/07/02 07:21:36;;;;;;;4.28;1.60;;;15.50;99.90;;;;;;4950902;28;20078;-84
2022/07/02 07:24:02;;;;;;;5.32;1.80;;;15.50;99.90;;;;;;4951227;28;20031;-84
2022/07/02 07:26:28;;;;;;;4.43;1.70;;;15.60;99.90;;;;;;4950451;29;20090;-87
2022/07/02 07:28:54;;;;;;;4.30;1.77;;;15.70;99.90;;;;;;4950602;28;20359;-83
2022/07/02 07:31:20;;;;;;;4.57;1.88;;;15.70;99.90;;;;;;4950330;29;20075;-84
2022/07/02 07:33:49;;;;;;;6.18;2.33;;;15.80;99.90;;;;;;4950522;28;20027;-86
2022/07/02 07:36:15;;;;;;;8.18;2.08;;;15.90;99.90;;;;;;4950639;28;20038;-93
2022/07/02 07:38:41;;;;;;;5.53;1.67;;;15.90;99.90;;;;;;4950403;28;20042;-93
2022/07/02 07:41:07;;;;;;;5.35;1.55;;;16.00;99.90;;;;;;4950320;29;20403;-84
2022/07/02 07:43:33;;;;;;;4.22;1.67;;;16.10;99.90;;;;;;4965688;28;20028;-83
2022/07/02 07:45:59;;;;;;;5.78;1.92;;;16.10;99.90;;;;;;4965762;28;20027;-93
2022/07/02 07:48:25;;;;;;;4.30;1.60;;;16.10;99.90;;;;;;4950638;29;20038;-92
2022/07/02 07:50:50;;;;;;;5.75;1.70;;;16.20;99.90;;;;;;4950545;28;20035;-90
2022/07/02 07:53:16;;;;;;;6.50;1.55;;;16.30;99.90;;;;;;4950206;29;20030;-83
2022/07/02 07:55:42;;;;;;;3.95;1.35;;;16.40;99.90;;;;;;4949911;29;20046;-82
2022/07/02 07:58:07;;;;;;;5.53;1.27;;;16.50;99.90;;;;;;4950381;29;20031;-90
2022/07/02 08:00:33;;;;;;;3.10;1.27;;;16.50;99.90;;;;;;4952983;29;20090;-89
2022/07/02 08:02:59;;;;;;;4.22;1.10;;;16.50;99.90;;;;;;4951251;28;20027;-94
2022/07/02 08:05:25;;;;;;;4.35;1.20;;;16.50;99.90;;;;;;4953349;28;20070;-92
2022/07/02 08:07:51;;;;;;;2.20;1.17;;;16.50;99.90;;;;;;4956308;28;20051;-91
2022/07/02 08:10:16;;;;;;;1.70;1.02;;;16.50;99.90;;;;;;4954582;29;20027;-90
2022/07/02 08:12:42;;;;;;;4.93;1.10;;;16.70;99.90;;;;;;4953969;28;20036;-93
2022/07/02 08:15:09;;;;;;;1.67;1.08;;;16.80;99.90;;;;;;4953311;29;20074;-94
2022/07/02 08:17:36;;;;;;;2.72;1.00;;;16.90;99.90;;;;;;4954781;28;20012;-84
2022/07/02 08:20:04;;;;;;;3.67;1.10;;;17.00;99.90;;;;;;4951884;28;20027;-91
2022/07/02 08:22:30;;;;;;;;;;;17.20;99.90;;;;;;4944653;29;20020;-91
2022/07/02 08:24:55;;;;;;;3.13;1.40;;;17.40;99.90;;;;;;4949763;28;20331;-88
2022/07/02 08:27:21;;;;;;;5.07;1.33;;;17.50;99.90;;;;;;4940480;29;20038;-90
2022/07/02 08:29:47;;;;;;;4.50;1.13;;;17.60;99.90;;;;;;4936150;29;20103;-83
2022/07/02 08:32:12;;;;;;;4.78;1.25;;;17.70;99.90;;;;;;4934551;29;20037;-92
2022/07/02 08:34:38;;;;;;;5.20;1.35;;;17.70;99.90;;;;;;4940512;29;20488;-92
2022/07/02 08:37:04;;;;;;;4.55;1.10;;;17.60;99.90;;;;;;4951734;29;20032;-85
2022/07/02 08:39:30;;;;;;;2.28;1.00;;;17.70;99.90;;;;;;4957397;28;20078;-89
2022/07/02 08:41:58;;;;;;;6.07;1.13;;;17.90;99.90;;;;;;4961621;29;20019;-92
2022/07/02 08:44:28;;;;;;;5.75;1.10;;;;;;;;;;4968398;29;20038;-91
2022/07/02 08:46:54;;;;;;;4.55;1.08;;;;;;;;;;4955100;28;20266;-91
2022/07/02 08:49:21;;;;;;;9.82;1.73;;;17.90;99.90;;;;;;4960299;29;20039;-94
2022/07/02 08:52:03;;;;;;;2.45;1.08;;;18.00;99.90;;;;;;4968249;28;20019;-84
2022/07/02 08:54:32;;;;;;;3.35;1.20;;;18.00;99.90;;;;;;4982292;28;20030;-85
2022/07/02 08:57:03;;;;;;;3.75;1.23;;;18.00;99.90;;;;;;4967149;28;20035;-84
2022/07/02 08:59:31;;;;;;;3.55;1.30;;;18.10;99.90;;;;;;4968061;28;20041;-84
2022/07/02 09:01:58;;;;;;;3.22;1.00;;;18.60;99.90;;;;;;4967273;28;20022;-83
2022/07/02 09:04:32;;;;;;;15.68;1.30;;;18.70;99.90;;;;;;4982376;28;20038;-82
2022/07/02 09:07:01;;;;;;;2.58;1.02;;;18.30;99.90;;;;;;4967151;28;20494;-84
2022/07/02 09:09:29;;;;;;;1.55;0.75;;;19.20;99.90;;;;;;4967362;28;20541;-83
2022/07/02 09:11:55;;;;;;;;;;;20.50;99.90;;;;;;4982102;28;20039;-84
2022/07/02 09:14:22;;;;;;;2.60;1.00;;;19.20;99.90;;;;;;4967079;28;19914;-86
2022/07/02 09:16:52;;;;;;;1.88;0.88;;;18.80;99.90;;;;;;4980960;28;20035;-83
2022/07/02 09:19:21;;;;;;;3.63;1.05;;;18.70;99.90;;;;;;4940256;28;20032;-84
2022/07/02 09:21:51;;;;;;;2.78;0.90;;;19.00;98.60;;;;;;4942066;29;20087;-85
2022/07/02 09:24:33;;;;;;;2.25;0.80;;;18.90;98.30;;;;;;4950728;28;20042;-82
2022/07/02 09:27:10;;;;;;;1.85;0.75;;;20.90;95.60;;;;;;4938297;29;20023;-84
2022/07/02 09:29:43;;;;;;;2.30;0.68;;;19.40;96.30;;;;;;4935473;29;20035;-85
2022/07/02 09:32:10;;;;;;;1.60;0.75;;;19.00;96.20;;;;;;4935121;28;20032;-82
2022/07/02 09:34:48;;;;;;;3.35;0.80;;;19.10;97.60;;;;;;4936975;28;20504;-82
2022/07/02 09:37:18;;;;;;;;;;;19.10;97.60;;;;;;4938135;29;20093;-84
2022/07/02 09:39:45;;;;;;;3.58;1.00;;;19.30;98.00;;;;;;4940434;28;19922;-83
2022/07/02 09:42:11;;;;;;;2.97;0.70;;;19.30;97.90;;;;;;4937672;28;20404;-87
2022/07/02 09:44:47;;;;;;;1.90;1.05;;;19.50;91.60;;;;;;4938866;28;20024;-85
2022/07/02 09:47:13;;;;;;;8.10;4.75;;;19.60;98.00;;;;;;4937611;29;20019;-85
2022/07/02 09:49:47;;;;;;;3.35;1.20;;;19.60;96.70;;;;;;4953286;28;20054;-85
2022/07/02 09:52:17;;;;;;;2.85;0.93;;;19.70;95.90;;;;;;4939695;28;20038;-84
2022/07/02 09:54:43;;;;;;;2.75;1.50;;;19.90;97.80;;;;;;4939976;28;20403;-90
2022/07/02 09:57:11;;;;;;;8.13;4.40;;;19.80;99.90;;;;;;4956383;28;20030;-88
2022/07/02 09:59:51;;;;;;;5.67;2.23;;;20.00;95.70;;;;;;4943629;28;20095;-95
2022/07/02 10:02:22;;;;;;;12.98;7.97;;;20.70;98.40;;;;;;4983022;28;20028;-92
2022/07/02 10:04:55;;;;;;;14.25;9.50;;;20.10;90.20;;;;;;4958662;28;20030;-95
2022/07/02 10:07:27;;;;;;;48.25;32.28;;;20.30;92.40;;;;;;4969695;28;20035;-89
2022/07/02 10:10:23;;;;;;;;;;;;;;;;;;;;;
2022/07/02 10:12:59;;;;;;;85.10;52.45;;;;;;;;;;4918121;29;20024;-90
2022/07/02 10:15:41;;;;;;;6.45;3.67;;;20.50;91.10;;;;;;4917987;29;20016;-89
2022/07/02 10:18:08;;;;;;;1.83;1.20;;;20.70;94.60;;;;;;4905435;29;20036;-89
2022/07/02 10:20:34;;;;;;;3.60;1.00;;;20.80;97.80;;;;;;4908009;29;20028;-91
2022/07/02 10:23:02;;;;;;;5.40;1.58;;;;;;;;;;4940302;28;20042;-85
2022/07/02 10:25:28;;;;;;;25.92;9.60;;;;;;;;;;4941146;28;20023;-88
2022/07/02 10:27:55;;;;;;;237.77;101.13;;;20.90;95.70;;;;;;4942799;28;20250;-89
2022/07/02 10:30:24;;;;;;;309.05;114.40;;;;;;;;;;4942198;28;20023;-88
2022/07/02 10:32:56;;;;;;;453.63;167.93;;;21.00;90.10;;;;;;4941696;28;20030;-88
2022/07/02 10:35:23;;;;;;;1640.25;719.22;;;21.00;93.70;;;;;;4933477;28;20031;-86
2022/07/02 10:37:56;;;;;;;83.40;55.07;;;21.00;91.30;;;;;;4939921;28;20023;-82
2022/07/02 10:40:22;;;;;;;15.57;6.63;;;21.00;90.40;;;;;;4944684;28;20397;-85
2022/07/02 10:42:50;;;;;;;195.48;112.95;;;21.10;92.20;;;;;;4947344;28;20031;-86
2022/07/02 10:45:20;;;;;;;22.02;11.48;;;20.90;90.10;;;;;;4947636;28;20034;-82
2022/07/02 10:48:15;;;;;;;6.55;3.08;;;20.90;82.50;;;;;;4947175;28;20027;-81
2022/07/02 10:50:47;;;;;;;11.02;4.95;;;21.10;88.20;;;;;;4934298;28;20046;-85
2022/07/02 10:53:17;;;;;;;32.70;8.20;;;21.20;89.00;;;;;;4948157;28;20031;-89
2022/07/02 10:55:44;;;;;;;38.92;25.48;;;21.00;76.20;;;;;;4948510;28;20446;-83
2022/07/02 10:58:20;;;;;;;109.65;55.97;;;20.90;77.20;;;;;;4946746;28;20039;-92
2022/07/02 11:00:47;;;;;;;184.18;84.50;;;20.80;78.50;;;;;;4949740;28;20483;-92
2022/07/02 11:03:18;;;;;;;8.75;5.25;;;20.80;84.60;;;;;;4970106;28;20073;-85
2022/07/02 11:05:59;;;;;;;8.68;4.50;;;21.10;90.50;;;;;;4970571;28;20110;-88
2022/07/02 11:08:53;;;;;;;8.23;4.60;;;21.30;88.90;;;;;;4969844;28;20491;-84
2022/07/02 11:11:39;;;;;;;32.38;22.10;;;21.40;77.10;;;;;;4969919;28;20035;-90
2022/07/02 11:14:10;;;;;;;8.30;3.88;;;21.40;77.50;;;;;;4959938;28;20518;-83
2022/07/02 11:16:50;;;;;;;241.02;131.40;;;21.20;74.40;;;;;;4969490;28;20087;-91
2022/07/02 11:19:27;;;;;;;58.72;29.33;;;21.20;73.20;;;;;;4969693;28;20035;-91
2022/07/02 11:21:54;;;;;;;4.20;2.25;;;;;;;;;;4970819;28;20028;-85
2022/07/02 11:24:22;;;;;;;49.93;33.47;;;;;;;;;;4970190;28;20033;-85
2022/07/02 11:26:48;;;;;;;13.40;5.65;;;;;;;;;;4969708;28;20273;-83
2022/07/02 11:29:15;;;;;;;5.07;2.00;;;21.20;72.90;;;;;;4970122;28;20475;-93
2022/07/02 11:31:49;;;;;;;5.75;2.40;;;21.50;68.00;;;;;;4958461;28;20479;-87
2022/07/02 11:34:26;;;;;;;4.78;1.73;;;21.50;73.50;;;;;;4938976;28;20031;-84
2022/07/02 11:36:53;;;;;;;2.83;1.03;;;21.50;66.10;;;;;;4947934;28;20027;-85
2022/07/02 11:39:21;;;;;;;1.90;1.38;;;21.40;65.00;;;;;;4949133;28;20522;-81
2022/07/02 11:41:48;;;;;;;113.93;50.03;;;21.60;67.80;;;;;;4957675;28;20027;-87
2022/07/02 11:44:24;;;;;;;19.77;9.93;;;21.50;71.90;;;;;;4952152;29;20027;-86
2022/07/02 11:46:51;;;;;;;21.70;10.25;;;;;;;;;;4952016;28;20049;-83
2022/07/02 11:49:19;;;;;;;5.05;1.63;;;;;;;;;;4952012;29;20098;-81
2022/07/02 11:51:45;;;;;;;1.27;1.03;;;;;;;;;;4952506;29;20033;-91
2022/07/02 11:54:13;;;;;;;5.03;0.95;;;;;;;;;;4956744;29;20031;-90
2022/07/02 11:56:40;;;;;;;2.17;1.08;;;;;;;;;;4960719;29;20011;-82
2022/07/02 11:59:14;;;;;;;1.10;0.80;;;;;;;;;;4972425;28;20067;-84
2022/07/02 12:01:41;;;;;;;1.73;0.80;;;;;;;;;;4955463;28;20024;-82
2022/07/02 12:04:09;;;;;;;1.88;0.75;;;;;;;;;;4972997;28;20042;-83
2022/07/02 12:06:39;;;;;;;0.95;0.70;;;;;;;;;;4952620;28;20027;-85
2022/07/02 12:09:07;;;;;;;2.45;1.25;;;;;;;;;;4954345;28;20023;-84
2022/07/02 12:11:34;;;;;;;11.77;6.53;;;;;;;;;;4969742;28;20054;-94
2022/07/02 12:14:00;;;;;;;5.57;3.17;;;;;;;;;;4967662;28;20051;-95
2022/07/02 12:16:27;;;;;;;2.50;1.50;;;21.50;68.10;;;;;;4952591;28;20024;-88
2022/07/02 12:18:57;;;;;;;1.02;0.65;;;21.90;58.90;;;;;;4954261;28;20039;-82
2022/07/02 12:21:34;;;;;;;4.75;1.10;;;21.90;58.80;;;;;;4951205;28;20031;-91
2022/07/02 12:24:00;;;;;;;1.17;0.73;;;21.80;57.30;;;;;;4953375;28;20027;-93
2022/07/02 12:26:28;;;;;;;2.38;0.90;;;21.80;59.20;;;;;;4953803;28;20046;-89
2022/07/02 12:31:49;;;;;;;1.83;1.20;;;21.90;61.60;;;;;;4949562;28;20082;-94
2022/07/02 12:34:16;;;;;;;5.45;1.20;;;21.80;56.70;;;;;;4951853;28;20042;-91
2022/07/02 12:36:45;;;;;;;3.05;1.42;;;21.80;60.00;;;;;;4951803;28;20020;-94
2022/07/02 12:39:10;;;;;;;2.83;1.83;;;21.70;57.50;;;;;;4950207;28;20043;-82
2022/07/02 12:41:38;;;;;;;2.22;1.40;;;21.60;55.10;;;;;;4950458;28;20034;-82
2022/07/02 12:44:04;;;;;;;7.00;3.50;;;21.70;59.70;;;;;;4951686;28;20034;-92
2022/07/02 12:46:29;;;;;;;4.90;3.40;;;21.80;60.80;;;;;;4950788;28;20042;-81
2022/07/02 12:48:55;;;;;;;4.10;2.28;;;;;;;;;;4950157;28;20031;-83
2022/07/02 12:51:24;;;;;;;4.07;3.08;;;;;;;;;;4964994;28;20039;-82
2022/07/02 12:53:57;;;;;;;17.13;11.05;;;;;;;;;;4949324;28;20066;-88
2022/07/02 12:56:23;;;;;;;3.67;2.40;;;22.00;60.80;;;;;;4953661;28;20437;-92
2022/07/02 12:58:48;;;;;;;3.95;1.50;;;22.30;60.10;;;;;;4944964;28;20035;-84
2022/07/02 13:01:14;;;;;;;3.92;1.90;;;22.40;62.90;;;;;;4967151;28;20035;-88
2022/07/02 13:03:40;;;;;;;4.30;1.50;;;22.40;58.30;;;;;;4950438;28;20027;-83
2022/07/02 13:06:05;;;;;;;1.75;1.38;;;22.30;58.40;;;;;;4950590;28;20038;-82
2022/07/02 13:08:31;;;;;;;8.85;4.35;;;22.30;61.10;;;;;;4951860;28;20030;-94